sensor_id;sensor_type;location;lat;lon;timestamp;P1;durP1;ratioP1;P2;durP2;ratioP2
51985;SDS011;38002;53.296;6.600;2023-03-07T00:03:57;19.85;;;9.50;;
51985;SDS011;38002;53.296;6.600;2023-03-07T00:08:59;19.80;;;10.27;;
51985;SDS011;38002;53.296;6.600;2023-03-07T00:14:00;25.17;;;10.75;;
51985;SDS011;38002;53.296;6.600;2023-03-07T00:19:01;18.02;;;9.93;;
51985;SDS011;38002;53.296;6.600;2023-03-07T00:24:01;12.65;;;7.78;;
51985;SDS011;38002;53.296;6.600;2023-03-07T00:34:05;10.18;;;5.90;;
51985;SDS011;38002;53.296;6.600;2023-03-07T00:39:05;12.30;;;5.60;;
51985;SDS011;38002;53.296;6.600;2023-03-07T00:44:07;10.30;;;3.85;;
51985;SDS011;38002;53.296;6.600;2023-03-07T00:49:07;9.18;;;3.22;;
51985;SDS011;38002;53.296;6.600;2023-03-07T00:54:08;8.70;;;2.40;;
51985;SDS011;38002;53.296;6.600;2023-03-07T00:59:08;3.05;;;1.38;;
51985;SDS011;38002;53.296;6.600;2023-03-07T01:04:09;9.32;;;1.30;;
51985;SDS011;38002;53.296;6.600;2023-03-07T01:09:10;6.50;;;1.45;;
51985;SDS011;38002;53.296;6.600;2023-03-07T01:14:11;3.53;;;0.90;;
51985;SDS011;38002;53.296;6.600;2023-03-07T01:19:11;8.75;;;1.33;;
51985;SDS011;38002;53.296;6.600;2023-03-07T01:24:12;9.48;;;1.10;;
51985;SDS011;38002;53.296;6.600;2023-03-07T01:34:14;10.80;;;1.25;;
51985;SDS011;38002;53.296;6.600;2023-03-07T01:39:15;10.85;;;1.25;;
51985;SDS011;38002;53.296;6.600;2023-03-07T01:44:17;15.65;;;1.73;;
51985;SDS011;38002;53.296;6.600;2023-03-07T01:49:32;10.57;;;1.20;;
51985;SDS011;38002;53.296;6.600;2023-03-07T01:54:42;11.38;;;1.33;;
51985;SDS011;38002;53.296;6.600;2023-03-07T01:59:48;7.30;;;1.08;;
51985;SDS011;38002;53.296;6.600;2023-03-07T02:04:58;7.45;;;1.17;;
51985;SDS011;38002;53.296;6.600;2023-03-07T02:10:03;6.32;;;1.08;;
51985;SDS011;38002;53.296;6.600;2023-03-07T02:25:28;4.57;;;1.30;;
51985;SDS011;38002;53.296;6.600;2023-03-07T02:30:36;5.95;;;0.95;;
51985;SDS011;38002;53.296;6.600;2023-03-07T02:35:37;7.25;;;0.88;;
51985;SDS011;38002;53.296;6.600;2023-03-07T02:40:37;11.35;;;1.17;;
51985;SDS011;38002;53.296;6.600;2023-03-07T02:45:39;6.85;;;0.90;;
51985;SDS011;38002;53.296;6.600;2023-03-07T02:50:39;7.05;;;0.93;;
51985;SDS011;38002;53.296;6.600;2023-03-07T02:55:39;6.75;;;0.75;;
51985;SDS011;38002;53.296;6.600;2023-03-07T03:00:40;3.97;;;1.55;;
51985;SDS011;38002;53.296;6.600;2023-03-07T03:05:41;5.90;;;1.08;;
51985;SDS011;38002;53.296;6.600;2023-03-07T03:10:41;4.35;;;1.48;;
51985;SDS011;38002;53.296;6.600;2023-03-07T03:15:42;9.30;;;1.48;;
51985;SDS011;38002;53.296;6.600;2023-03-07T03:20:42;12.43;;;1.52;;
51985;SDS011;38002;53.296;6.600;2023-03-07T03:25:42;8.02;;;0.90;;
51985;SDS011;38002;53.296;6.600;2023-03-07T03:30:43;6.57;;;0.90;;
51985;SDS011;38002;53.296;6.600;2023-03-07T03:35:43;8.82;;;1.10;;
51985;SDS011;38002;53.296;6.600;2023-03-07T03:40:44;4.78;;;1.00;;
51985;SDS011;38002;53.296;6.600;2023-03-07T03:45:52;6.22;;;1.08;;
51985;SDS011;38002;53.296;6.600;2023-03-07T03:56:10;8.70;;;1.02;;
51985;SDS011;38002;53.296;6.600;2023-03-07T04:01:13;4.00;;;0.77;;
51985;SDS011;38002;53.296;6.600;2023-03-07T04:06:18;3.88;;;0.55;;
51985;SDS011;38002;53.296;6.600;2023-03-07T04:11:23;7.22;;;0.65;;
51985;SDS011;38002;53.296;6.600;2023-03-07T04:16:24;7.60;;;1.00;;
51985;SDS011;38002;53.296;6.600;2023-03-07T04:21:24;4.45;;;0.65;;
51985;SDS011;38002;53.296;6.600;2023-03-07T04:26:24;3.58;;;0.73;;
51985;SDS011;38002;53.296;6.600;2023-03-07T04:31:25;9.48;;;0.75;;
51985;SDS011;38002;53.296;6.600;2023-03-07T04:36:27;6.32;;;0.68;;
51985;SDS011;38002;53.296;6.600;2023-03-07T04:41:27;4.07;;;0.95;;
51985;SDS011;38002;53.296;6.600;2023-03-07T04:46:28;5.88;;;1.40;;
51985;SDS011;38002;53.296;6.600;2023-03-07T04:51:28;11.52;;;1.52;;
51985;SDS011;38002;53.296;6.600;2023-03-07T04:56:29;6.90;;;0.90;;
51985;SDS011;38002;53.296;6.600;2023-03-07T05:01:29;3.90;;;1.48;;
51985;SDS011;38002;53.296;6.600;2023-03-07T05:06:29;6.63;;;1.00;;
51985;SDS011;38002;53.296;6.600;2023-03-07T05:11:30;3.47;;;0.70;;
51985;SDS011;38002;53.296;6.600;2023-03-07T05:16:30;7.28;;;1.75;;
51985;SDS011;38002;53.296;6.600;2023-03-07T05:21:32;8.18;;;1.02;;
51985;SDS011;38002;53.296;6.600;2023-03-07T05:26:33;8.82;;;1.40;;
51985;SDS011;38002;53.296;6.600;2023-03-07T05:31:33;6.82;;;1.08;;
51985;SDS011;38002;53.296;6.600;2023-03-07T05:36:35;3.15;;;1.48;;
51985;SDS011;38002;53.296;6.600;2023-03-07T05:41:36;5.72;;;1.83;;
51985;SDS011;38002;53.296;6.600;2023-03-07T05:46:36;4.63;;;0.70;;
51985;SDS011;38002;53.296;6.600;2023-03-07T05:51:36;1.02;;;0.35;;
51985;SDS011;38002;53.296;6.600;2023-03-07T05:56:37;4.22;;;0.55;;
51985;SDS011;38002;53.296;6.600;2023-03-07T06:01:37;0.80;;;0.30;;
51985;SDS011;38002;53.296;6.600;2023-03-07T06:06:38;1.45;;;0.63;;
51985;SDS011;38002;53.296;6.600;2023-03-07T06:11:38;4.25;;;0.80;;
51985;SDS011;38002;53.296;6.600;2023-03-07T06:16:39;6.93;;;0.80;;
51985;SDS011;38002;53.296;6.600;2023-03-07T06:21:40;2.53;;;1.20;;
51985;SDS011;38002;53.296;6.600;2023-03-07T06:31:42;11.55;;;1.67;;
51985;SDS011;38002;53.296;6.600;2023-03-07T06:36:42;7.53;;;1.08;;
51985;SDS011;38002;53.296;6.600;2023-03-07T06:41:42;3.95;;;1.13;;
51985;SDS011;38002;53.296;6.600;2023-03-07T06:46:43;6.07;;;1.85;;
51985;SDS011;38002;53.296;6.600;2023-03-07T06:51:44;4.40;;;1.27;;
51985;SDS011;38002;53.296;6.600;2023-03-07T06:56:45;8.68;;;1.02;;
51985;SDS011;38002;53.296;6.600;2023-03-07T07:01:45;8.38;;;1.00;;
51985;SDS011;38002;53.296;6.600;2023-03-07T07:06:47;6.13;;;1.20;;
51985;SDS011;38002;53.296;6.600;2023-03-07T07:11:48;5.90;;;0.90;;
51985;SDS011;38002;53.296;6.600;2023-03-07T07:16:48;6.07;;;1.40;;
51985;SDS011;38002;53.296;6.600;2023-03-07T07:21:48;7.00;;;1.00;;
51985;SDS011;38002;53.296;6.600;2023-03-07T07:26:49;6.18;;;1.08;;
51985;SDS011;38002;53.296;6.600;2023-03-07T07:31:49;4.13;;;0.77;;
51985;SDS011;38002;53.296;6.600;2023-03-07T07:36:50;3.95;;;0.75;;
51985;SDS011;38002;53.296;6.600;2023-03-07T07:41:52;5.50;;;1.00;;
51985;SDS011;38002;53.296;6.600;2023-03-07T07:46:52;3.50;;;0.95;;
51985;SDS011;38002;53.296;6.600;2023-03-07T07:51:53;8.40;;;0.70;;
51985;SDS011;38002;53.296;6.600;2023-03-07T07:56:53;2.00;;;0.65;;
51985;SDS011;38002;53.296;6.600;2023-03-07T08:01:53;5.97;;;0.60;;
51985;SDS011;38002;53.296;6.600;2023-03-07T08:06:54;3.25;;;0.80;;
51985;SDS011;38002;53.296;6.600;2023-03-07T08:11:54;5.80;;;1.63;;
51985;SDS011;38002;53.296;6.600;2023-03-07T08:16:55;9.00;;;1.20;;
51985;SDS011;38002;53.296;6.600;2023-03-07T08:21:56;8.43;;;1.52;;
51985;SDS011;38002;53.296;6.600;2023-03-07T08:26:57;4.22;;;0.70;;
51985;SDS011;38002;53.296;6.600;2023-03-07T08:31:58;4.03;;;0.60;;
51985;SDS011;38002;53.296;6.600;2023-03-07T08:36:58;3.40;;;0.70;;
51985;SDS011;38002;53.296;6.600;2023-03-07T08:41:59;2.95;;;1.00;;
51985;SDS011;38002;53.296;6.600;2023-03-07T08:46:59;2.40;;;0.80;;
51985;SDS011;38002;53.296;6.600;2023-03-07T08:52:00;6.63;;;0.90;;
51985;SDS011;38002;53.296;6.600;2023-03-07T08:57:00;3.88;;;0.82;;
51985;SDS011;38002;53.296;6.600;2023-03-07T09:02:01;5.55;;;0.85;;
51985;SDS011;38002;53.296;6.600;2023-03-07T09:07:02;4.93;;;1.00;;
51985;SDS011;38002;53.296;6.600;2023-03-07T09:12:02;9.35;;;0.90;;
51985;SDS011;38002;53.296;6.600;2023-03-07T09:17:03;8.75;;;1.10;;
51985;SDS011;38002;53.296;6.600;2023-03-07T09:22:04;7.28;;;1.40;;
51985;SDS011;38002;53.296;6.600;2023-03-07T09:27:04;4.15;;;0.90;;
51985;SDS011;38002;53.296;6.600;2023-03-07T09:32:05;6.07;;;0.85;;
51985;SDS011;38002;53.296;6.600;2023-03-07T09:37:05;5.70;;;1.05;;
51985;SDS011;38002;53.296;6.600;2023-03-07T09:42:31;7.22;;;1.08;;
51985;SDS011;38002;53.296;6.600;2023-03-07T09:52:42;16.38;;;1.27;;
51985;SDS011;38002;53.296;6.600;2023-03-07T09:57:45;6.28;;;0.95;;
51985;SDS011;38002;53.296;6.600;2023-03-07T10:02:51;3.15;;;0.70;;
51985;SDS011;38002;53.296;6.600;2023-03-07T10:08:19;9.43;;;0.80;;
51985;SDS011;38002;53.296;6.600;2023-03-07T10:29:11;5.30;;;1.00;;
51985;SDS011;38002;53.296;6.600;2023-03-07T10:34:26;1.27;;;0.82;;
51985;SDS011;38002;53.296;6.600;2023-03-07T10:44:40;10.10;;;1.08;;
51985;SDS011;38002;53.296;6.600;2023-03-07T10:49:42;3.25;;;0.95;;
51985;SDS011;38002;53.296;6.600;2023-03-07T10:54:45;6.90;;;0.88;;
51985;SDS011;38002;53.296;6.600;2023-03-07T10:59:46;8.57;;;1.05;;
51985;SDS011;38002;53.296;6.600;2023-03-07T11:09:48;6.72;;;1.20;;
51985;SDS011;38002;53.296;6.600;2023-03-07T11:19:54;9.38;;;0.90;;
51985;SDS011;38002;53.296;6.600;2023-03-07T11:35:23;6.30;;;1.67;;
51985;SDS011;38002;53.296;6.600;2023-03-07T11:40:55;6.47;;;1.00;;
51985;SDS011;38002;53.296;6.600;2023-03-07T11:52:03;4.32;;;0.75;;
51985;SDS011;38002;53.296;6.600;2023-03-07T12:08:04;4.47;;;0.50;;
51985;SDS011;38002;53.296;6.600;2023-03-07T12:23:58;3.05;;;0.85;;
51985;SDS011;38002;53.296;6.600;2023-03-07T12:34:30;8.02;;;1.10;;
51985;SDS011;38002;53.296;6.600;2023-03-07T12:50:08;2.55;;;0.32;;
51985;SDS011;38002;53.296;6.600;2023-03-07T12:55:17;1.13;;;0.25;;
51985;SDS011;38002;53.296;6.600;2023-03-07T13:00:23;1.67;;;0.50;;
51985;SDS011;38002;53.296;6.600;2023-03-07T13:05:24;4.97;;;0.80;;
51985;SDS011;38002;53.296;6.600;2023-03-07T13:10:24;3.83;;;1.10;;
51985;SDS011;38002;53.296;6.600;2023-03-07T13:15:48;4.72;;;1.15;;
51985;SDS011;38002;53.296;6.600;2023-03-07T13:21:06;5.03;;;0.70;;
51985;SDS011;38002;53.296;6.600;2023-03-07T13:26:09;5.65;;;0.70;;
51985;SDS011;38002;53.296;6.600;2023-03-07T13:36:32;2.28;;;0.40;;
51985;SDS011;38002;53.296;6.600;2023-03-07T13:46:47;5.78;;;0.90;;
51985;SDS011;38002;53.296;6.600;2023-03-07T13:57:21;6.25;;;0.70;;
51985;SDS011;38002;53.296;6.600;2023-03-07T14:02:24;4.10;;;0.60;;
51985;SDS011;38002;53.296;6.600;2023-03-07T14:07:28;1.85;;;0.70;;
51985;SDS011;38002;53.296;6.600;2023-03-07T14:12:43;2.47;;;0.80;;
51985;SDS011;38002;53.296;6.600;2023-03-07T14:28:21;1.20;;;0.32;;
51985;SDS011;38002;53.296;6.600;2023-03-07T14:33:36;2.17;;;0.55;;
51985;SDS011;38002;53.296;6.600;2023-03-07T14:49:22;0.38;;;0.20;;
51985;SDS011;38002;53.296;6.600;2023-03-07T14:54:39;1.60;;;0.38;;
51985;SDS011;38002;53.296;6.600;2023-03-07T15:00:00;2.60;;;0.50;;
51985;SDS011;38002;53.296;6.600;2023-03-07T15:05:14;1.08;;;0.40;;
51985;SDS011;38002;53.296;6.600;2023-03-07T15:10:16;2.45;;;0.55;;
51985;SDS011;38002;53.296;6.600;2023-03-07T15:15:28;2.58;;;0.85;;
51985;SDS011;38002;53.296;6.600;2023-03-07T15:20:32;0.38;;;0.28;;
51985;SDS011;38002;53.296;6.600;2023-03-07T15:25:33;2.40;;;0.65;;
51985;SDS011;38002;53.296;6.600;2023-03-07T15:30:37;0.10;;;0.10;;
51985;SDS011;38002;53.296;6.600;2023-03-07T15:35:38;0.10;;;0.10;;
51985;SDS011;38002;53.296;6.600;2023-03-07T15:40:39;3.30;;;0.32;;
51985;SDS011;38002;53.296;6.600;2023-03-07T15:45:41;1.03;;;0.60;;
51985;SDS011;38002;53.296;6.600;2023-03-07T15:50:49;4.38;;;0.60;;
51985;SDS011;38002;53.296;6.600;2023-03-07T15:55:55;2.40;;;0.55;;
51985;SDS011;38002;53.296;6.600;2023-03-07T16:06:38;2.15;;;0.40;;
51985;SDS011;38002;53.296;6.600;2023-03-07T16:11:44;0.20;;;0.20;;
51985;SDS011;38002;53.296;6.600;2023-03-07T16:16:45;0.20;;;0.20;;
51985;SDS011;38002;53.296;6.600;2023-03-07T16:21:46;2.03;;;0.20;;
51985;SDS011;38002;53.296;6.600;2023-03-07T16:26:46;0.38;;;0.20;;
51985;SDS011;38002;53.296;6.600;2023-03-07T16:31:47;5.70;;;0.98;;
51985;SDS011;38002;53.296;6.600;2023-03-07T16:36:48;2.00;;;0.60;;
51985;SDS011;38002;53.296;6.600;2023-03-07T16:41:49;3.13;;;0.30;;
51985;SDS011;38002;53.296;6.600;2023-03-07T16:46:57;0.82;;;0.30;;
51985;SDS011;38002;53.296;6.600;2023-03-07T16:52:04;0.30;;;0.30;;
51985;SDS011;38002;53.296;6.600;2023-03-07T16:57:05;0.75;;;0.40;;
51985;SDS011;38002;53.296;6.600;2023-03-07T17:02:12;0.40;;;0.40;;
51985;SDS011;38002;53.296;6.600;2023-03-07T17:07:16;2.67;;;0.40;;
51985;SDS011;38002;53.296;6.600;2023-03-07T17:12:19;0.68;;;0.68;;
51985;SDS011;38002;53.296;6.600;2023-03-07T17:17:24;1.20;;;1.10;;
51985;SDS011;38002;53.296;6.600;2023-03-07T17:22:29;1.77;;;0.60;;
51985;SDS011;38002;53.296;6.600;2023-03-07T17:27:30;2.13;;;0.82;;
51985;SDS011;38002;53.296;6.600;2023-03-07T17:32:32;1.20;;;1.10;;
51985;SDS011;38002;53.296;6.600;2023-03-07T17:37:33;3.97;;;1.63;;
51985;SDS011;38002;53.296;6.600;2023-03-07T17:42:33;3.25;;;2.10;;
51985;SDS011;38002;53.296;6.600;2023-03-07T17:47:34;5.40;;;3.78;;
51985;SDS011;38002;53.296;6.600;2023-03-07T17:52:34;2.83;;;2.58;;
51985;SDS011;38002;53.296;6.600;2023-03-07T17:57:35;1.90;;;1.48;;
51985;SDS011;38002;53.296;6.600;2023-03-07T18:02:36;3.38;;;0.60;;
51985;SDS011;38002;53.296;6.600;2023-03-07T18:07:37;0.95;;;0.57;;
51985;SDS011;38002;53.296;6.600;2023-03-07T18:12:38;0.40;;;0.40;;
51985;SDS011;38002;53.296;6.600;2023-03-07T18:17:38;4.57;;;0.90;;
51985;SDS011;38002;53.296;6.600;2023-03-07T18:22:39;3.85;;;0.77;;
51985;SDS011;38002;53.296;6.600;2023-03-07T18:27:40;1.98;;;0.82;;
51985;SDS011;38002;53.296;6.600;2023-03-07T18:32:41;4.20;;;0.93;;
51985;SDS011;38002;53.296;6.600;2023-03-07T18:37:42;1.95;;;0.55;;
51985;SDS011;38002;53.296;6.600;2023-03-07T18:42:42;3.05;;;0.60;;
51985;SDS011;38002;53.296;6.600;2023-03-07T18:47:43;0.55;;;0.52;;
51985;SDS011;38002;53.296;6.600;2023-03-07T18:52:43;0.45;;;0.40;;
51985;SDS011;38002;53.296;6.600;2023-03-07T18:57:44;0.30;;;0.30;;
51985;SDS011;38002;53.296;6.600;2023-03-07T19:02:44;2.50;;;0.65;;
51985;SDS011;38002;53.296;6.600;2023-03-07T19:07:45;2.67;;;0.55;;
51985;SDS011;38002;53.296;6.600;2023-03-07T19:12:45;1.65;;;0.70;;
51985;SDS011;38002;53.296;6.600;2023-03-07T19:17:46;4.55;;;0.75;;
51985;SDS011;38002;53.296;6.600;2023-03-07T19:22:46;1.45;;;0.40;;
51985;SDS011;38002;53.296;6.600;2023-03-07T19:27:47;0.40;;;0.40;;
51985;SDS011;38002;53.296;6.600;2023-03-07T19:32:47;1.38;;;0.55;;
51985;SDS011;38002;53.296;6.600;2023-03-07T19:37:47;0.30;;;0.30;;
51985;SDS011;38002;53.296;6.600;2023-03-07T19:42:48;0.40;;;0.40;;
51985;SDS011;38002;53.296;6.600;2023-03-07T19:47:48;1.20;;;0.68;;
51985;SDS011;38002;53.296;6.600;2023-03-07T19:52:49;2.60;;;0.70;;
51985;SDS011;38002;53.296;6.600;2023-03-07T19:57:49;1.95;;;0.93;;
51985;SDS011;38002;53.296;6.600;2023-03-07T20:02:50;0.95;;;0.90;;
51985;SDS011;38002;53.296;6.600;2023-03-07T20:07:50;6.68;;;1.05;;
51985;SDS011;38002;53.296;6.600;2023-03-07T20:12:51;2.58;;;1.35;;
51985;SDS011;38002;53.296;6.600;2023-03-07T20:17:53;1.25;;;1.02;;
51985;SDS011;38002;53.296;6.600;2023-03-07T20:22:54;2.05;;;1.30;;
51985;SDS011;38002;53.296;6.600;2023-03-07T20:27:56;2.15;;;1.20;;
51985;SDS011;38002;53.296;6.600;2023-03-07T20:32:57;1.42;;;1.33;;
51985;SDS011;38002;53.296;6.600;2023-03-07T20:37:57;2.42;;;1.50;;
51985;SDS011;38002;53.296;6.600;2023-03-07T20:42:57;1.48;;;1.38;;
51985;SDS011;38002;53.296;6.600;2023-03-07T20:53:00;2.70;;;1.00;;
51985;SDS011;38002;53.296;6.600;2023-03-07T20:58:00;4.57;;;1.33;;
51985;SDS011;38002;53.296;6.600;2023-03-07T21:03:01;9.55;;;1.35;;
51985;SDS011;38002;53.296;6.600;2023-03-07T21:08:01;4.90;;;1.20;;
51985;SDS011;38002;53.296;6.600;2023-03-07T21:13:02;2.67;;;1.20;;
51985;SDS011;38002;53.296;6.600;2023-03-07T21:18:02;4.22;;;1.10;;
51985;SDS011;38002;53.296;6.600;2023-03-07T21:23:03;3.20;;;1.10;;
51985;SDS011;38002;53.296;6.600;2023-03-07T21:28:04;2.03;;;1.05;;
51985;SDS011;38002;53.296;6.600;2023-03-07T21:33:04;2.97;;;0.85;;
51985;SDS011;38002;53.296;6.600;2023-03-07T21:38:05;2.55;;;1.77;;
51985;SDS011;38002;53.296;6.600;2023-03-07T21:43:05;1.38;;;1.02;;
51985;SDS011;38002;53.296;6.600;2023-03-07T21:48:06;2.35;;;1.15;;
51985;SDS011;38002;53.296;6.600;2023-03-07T21:53:07;0.98;;;0.95;;
51985;SDS011;38002;53.296;6.600;2023-03-07T21:58:07;2.00;;;1.20;;
51985;SDS011;38002;53.296;6.600;2023-03-07T22:03:08;0.80;;;0.80;;
51985;SDS011;38002;53.296;6.600;2023-03-07T22:08:09;2.78;;;1.35;;
51985;SDS011;38002;53.296;6.600;2023-03-07T22:13:10;4.63;;;1.02;;
51985;SDS011;38002;53.296;6.600;2023-03-07T22:18:10;0.70;;;0.70;;
51985;SDS011;38002;53.296;6.600;2023-03-07T22:23:11;0.77;;;0.77;;
51985;SDS011;38002;53.296;6.600;2023-03-07T22:28:11;2.25;;;1.25;;
51985;SDS011;38002;53.296;6.600;2023-03-07T22:33:15;0.73;;;0.70;;
51985;SDS011;38002;53.296;6.600;2023-03-07T22:38:16;1.08;;;1.00;;
51985;SDS011;38002;53.296;6.600;2023-03-07T22:43:18;1.92;;;0.98;;
51985;SDS011;38002;53.296;6.600;2023-03-07T22:48:18;2.08;;;0.82;;
51985;SDS011;38002;53.296;6.600;2023-03-07T22:53:19;0.60;;;0.60;;
51985;SDS011;38002;53.296;6.600;2023-03-07T22:58:20;0.68;;;0.60;;
51985;SDS011;38002;53.296;6.600;2023-03-07T23:03:20;2.92;;;1.33;;
51985;SDS011;38002;53.296;6.600;2023-03-07T23:08:22;2.20;;;1.20;;
51985;SDS011;38002;53.296;6.600;2023-03-07T23:13:22;2.75;;;1.27;;
51985;SDS011;38002;53.296;6.600;2023-03-07T23:18:23;19.95;;;8.02;;
51985;SDS011;38002;53.296;6.600;2023-03-07T23:23:23;5.93;;;3.42;;
51985;SDS011;38002;53.296;6.600;2023-03-07T23:28:24;1.25;;;1.20;;
51985;SDS011;38002;53.296;6.600;2023-03-07T23:33:24;1.20;;;1.10;;
51985;SDS011;38002;53.296;6.600;2023-03-07T23:38:25;2.47;;;0.90;;
51985;SDS011;38002;53.296;6.600;2023-03-07T23:43:25;0.90;;;0.90;;
51985;SDS011;38002;53.296;6.600;2023-03-07T23:48:26;0.90;;;0.90;;
51985;SDS011;38002;53.296;6.600;2023-03-07T23:53:26;1.65;;;0.95;;
51985;SDS011;38002;53.296;6.600;2023-03-07T23:58:27;3.88;;;1.20;;
